Time;durP1;ratioP1;P1;durP2;ratioP2;P2;SDS_P1;SDS_P2;PMS_P1;PMS_P2;Temp;Humidity;BMP_temperature;BMP_pressure;BME280_temperature;BME280_humidity;BME280_pressure;Samples;Min_cycle;Max_cycle;Signal;HPM_P1;HPM_P2
2023/11/10 00:01:36;;;;;;;5.15;1.98;;;;;;;;;;4941034;28;20424;-77
2023/11/10 00:04:04;;;;;;;3.72;2.10;;;;;;;;;;4975834;28;20027;-77
2023/11/10 00:06:31;;;;;;;3.58;1.90;;;;;;;;;;4960482;28;20538;-77
2023/11/10 00:08:57;;;;;;;4.32;2.10;;;;;;;;;;4974968;28;20050;-77
2023/11/10 00:11:26;;;;;;;4.47;2.17;;;;;;;;;;4959068;28;20093;-77
2023/11/10 00:13:53;;;;;;;4.20;2.13;;;;;;;;;;4953441;28;20130;-77
2023/11/10 00:16:19;;;;;;;2.97;1.60;;;;;;;;;;4954523;28;20058;-77
2023/11/10 00:18:45;;;;;;;3.05;1.80;;;;;;;;;;4965219;28;20033;-77
2023/11/10 00:21:19;;;;;;;4.22;2.03;;;;;;;;;;4959571;28;20025;-76
2023/11/10 00:23:44;;;;;;;4.75;1.90;;;;;;;;;;4979189;28;20030;-77
2023/11/10 00:26:25;;;;;;;4.60;1.83;;;;;;;;;;4975518;28;20547;-77
2023/11/10 00:28:52;;;;;;;5.40;1.63;;;;;;;;;;4960088;28;20034;-77
2023/11/10 00:31:21;;;;;;;4.75;1.80;;;;;;;;;;4958066;28;20477;-77
2023/11/10 00:33:52;;;;;;;4.93;1.98;;;;;;;;;;4974642;28;20038;-77
2023/11/10 00:36:18;;;;;;;4.45;1.95;;;;;;;;;;4956631;28;20030;-76
2023/11/10 00:38:45;;;;;;;4.13;1.60;;;;;;;;;;4963766;28;20477;-76
2023/11/10 00:41:11;;;;;;;5.68;2.05;;;;;;;;;;4975727;28;20034;-76
2023/11/10 00:43:37;;;;;;;4.28;1.63;;;;;;;;;;4974815;28;20027;-76
2023/11/10 00:46:02;;;;;;;5.70;1.77;;;;;;;;;;4974438;28;20396;-77
2023/11/10 00:48:28;;;;;;;3.90;1.63;;;;;;;;;;4955436;28;20080;-77
2023/11/10 00:50:53;;;;;;;5.70;1.80;;;;;;;;;;4973734;28;20034;-77
2023/11/10 00:53:20;;;;;;;4.57;1.33;;;;;;;;;;4984740;28;20401;-76
2023/11/10 00:55:46;;;;;;;4.60;1.80;;;;;;;;;;4970677;28;20037;-77
2023/11/10 00:58:11;;;;;;;4.25;1.55;;;;;;;;;;4946040;28;20027;-77
2023/11/10 01:00:36;;;;;;;4.95;1.52;;;;;;;;;;4960330;28;20054;-77
2023/11/10 01:03:05;;;;;;;2.95;1.35;;;;;;;;;;4973951;28;20424;-77
2023/11/10 01:05:30;;;;;;;3.83;1.77;;;;;;;;;;4978725;28;20077;-77
2023/11/10 01:07:55;;;;;;;7.05;1.60;;;;;;;;;;4955839;28;20437;-77
2023/11/10 01:10:21;;;;;;;4.57;1.80;;;;;;;;;;4968567;28;20031;-77
2023/11/10 01:12:47;;;;;;;5.00;1.40;;;;;;;;;;4972064;28;20041;-77
2023/11/10 01:15:15;;;;;;;3.70;1.50;;;;;;;;;;4969990;28;20027;-77
2023/11/10 01:17:41;;;;;;;4.07;1.27;;;;;;;;;;4972996;28;20027;-77
2023/11/10 01:20:10;;;;;;;3.88;1.30;;;;;;;;;;4957187;28;20058;-77
2023/11/10 01:22:36;;;;;;;3.90;1.38;;;;;;;;;;4970410;28;20090;-77
2023/11/10 01:25:03;;;;;;;4.18;1.27;;;;;;;;;;4974552;28;20019;-77
2023/11/10 01:27:29;;;;;;;3.95;1.40;;;;;;;;;;4983930;28;20027;-77
2023/11/10 01:29:55;;;;;;;4.10;1.30;;;;;;;;;;4973226;28;20034;-77
2023/11/10 01:32:20;;;;;;;4.10;1.33;;;;;;;;;;4956751;28;20030;-77
2023/11/10 01:34:45;;;;;;;4.57;1.40;;;;;;;;;;4955809;28;20030;-77
2023/11/10 01:37:12;;;;;;;3.53;1.58;;;;;;;;;;4957741;28;20037;-77
2023/11/10 01:39:37;;;;;;;2.33;1.20;;;;;;;;;;4972613;28;20093;-77
2023/11/10 01:42:04;;;;;;;6.03;1.38;;;;;;;;;;4972228;28;20098;-77
2023/11/10 01:44:31;;;;;;;3.53;1.48;;;;;;;;;;4956093;28;20030;-77
2023/11/10 01:46:58;;;;;;;3.13;1.27;;;;;;;;;;4958107;28;20026;-76
2023/11/10 01:49:24;;;;;;;3.53;1.30;;;;;;;;;;4973108;28;20030;-76
2023/11/10 01:51:51;;;;;;;4.95;1.60;;;;;;;;;;4968707;28;20023;-76
2023/11/10 01:54:21;;;;;;;3.25;1.23;;;;;;;;;;4951102;28;20031;-76
2023/11/10 01:56:47;;;;;;;5.63;1.48;;;;;;;;;;4971926;28;20489;-77
2023/11/10 01:59:14;;;;;;;2.83;1.20;;;;;;;;;;4969564;28;20039;-77
2023/11/10 02:01:41;;;;;;;3.22;1.20;;;;;;;;;;4955720;28;20101;-77
2023/11/10 02:04:11;;;;;;;3.28;1.30;;;;;;;;;;4956481;28;20034;-77
2023/11/10 02:06:40;;;;;;;3.35;1.50;;;;;;;;;;4978344;28;20049;-77
2023/11/10 02:09:05;;;;;;;2.40;1.40;;;;;;;;;;4946584;28;20412;-77
2023/11/10 02:11:31;;;;;;;1.75;1.02;;;;;;;;;;4959842;28;20035;-77
2023/11/10 02:14:01;;;;;;;2.17;1.23;;;;;;;;;;4976923;28;20081;-77
2023/11/10 02:16:26;;;;;;;2.33;1.33;;;;;;;;;;4955719;28;20678;-77
2023/11/10 02:18:52;;;;;;;5.63;1.70;;;;;;;;;;4985061;28;20122;-77
2023/11/10 02:21:17;;;;;;;4.00;1.30;;;;;;;;;;4971843;28;20482;-77
2023/11/10 02:23:44;;;;;;;2.90;1.25;;;;;;;;;;4973664;28;20044;-77
2023/11/10 02:26:11;;;;;;;3.00;1.40;;;;;;;;;;4959742;28;20042;-77
2023/11/10 02:28:38;;;;;;;3.00;1.30;;;;;;;;;;4957522;28;20049;-77
2023/11/10 02:31:03;;;;;;;3.33;1.40;;;;;;;;;;4973841;28;20472;-77
2023/11/10 02:33:29;;;;;;;3.58;1.42;;;;;;;;;;4972198;28;20026;-77
2023/11/10 02:35:54;;;;;;;3.13;1.30;;;;;;;;;;4971722;28;20094;-77
2023/11/10 02:38:19;;;;;;;4.63;1.77;;;;;;;;;;4974196;28;20042;-77
2023/11/10 02:40:45;;;;;;;3.40;1.67;;;;;;;;;;4969723;28;20035;-77
2023/11/10 02:43:10;;;;;;;3.25;1.20;;;;;;;;;;4958634;28;20038;-77
2023/11/10 02:45:36;;;;;;;2.90;1.08;;;;;;;;;;4976031;28;20022;-77
2023/11/10 02:48:02;;;;;;;2.97;1.20;;;;;;;;;;4976231;28;20035;-77
2023/11/10 02:50:28;;;;;;;4.32;1.48;;;;;;;;;;4976808;28;20030;-77
2023/11/10 02:52:53;;;;;;;4.15;1.30;;;;;;;;;;4960708;28;20484;-77
2023/11/10 02:55:19;;;;;;;4.88;1.23;;;;;;;;;;4961729;28;20034;-77
2023/11/10 02:57:44;;;;;;;3.53;1.40;;;;;;;;;;4972048;28;20034;-77
2023/11/10 03:00:10;;;;;;;3.60;1.20;;;;;;;;;;4957804;28;20511;-77
2023/11/10 03:02:37;;;;;;;4.88;1.30;;;;;;;;;;4956906;28;20034;-77
2023/11/10 03:05:03;;;;;;;3.03;1.10;;;;;;;;;;4976266;28;20156;-77
2023/11/10 03:07:28;;;;;;;3.35;1.60;;;;;;;;;;4959822;28;20404;-77
2023/11/10 03:09:53;;;;;;;2.70;1.20;;;;;;;;;;4960707;28;20034;-76
2023/11/10 03:12:19;;;;;;;3.65;1.30;;;;;;;;;;4976644;28;20548;-77
2023/11/10 03:14:44;;;;;;;3.58;1.20;;;;;;;;;;4982140;28;20663;-77
2023/11/10 03:17:09;;;;;;;3.25;1.42;;;;;;;;;;4979212;28;20034;-77
2023/11/10 03:19:35;;;;;;;3.50;1.15;;;;;;;;;;4975330;28;20400;-77
2023/11/10 03:22:00;;;;;;;4.32;1.48;;;;;;;;;;4979382;28;20023;-77
2023/11/10 03:24:26;;;;;;;3.05;1.30;;;;;;;;;;4979093;28;20497;-77
2023/11/10 03:26:51;;;;;;;4.13;1.50;;;;;;;;;;4968870;28;20387;-77
2023/11/10 03:29:17;;;;;;;2.33;1.30;;;;;;;;;;4974131;28;20055;-77
2023/11/10 03:31:43;;;;;;;3.08;1.20;;;;;;;;;;4974986;28;20023;-77
2023/11/10 03:34:09;;;;;;;2.78;1.40;;;;;;;;;;4961774;28;20093;-77
2023/11/10 03:36:36;;;;;;;2.60;1.20;;;;;;;;;;4974545;28;20039;-77
2023/11/10 03:39:01;;;;;;;3.90;1.30;;;;;;;;;;4976156;28;20022;-77
2023/11/10 03:41:27;;;;;;;2.28;0.90;;;;;;;;;;4978334;28;20730;-77
2023/11/10 03:43:52;;;;;;;2.63;1.10;;;;;;;;;;4959203;28;20035;-77
2023/11/10 03:46:18;;;;;;;3.03;1.27;;;;;;;;;;4971435;28;20031;-77
2023/11/10 03:48:43;;;;;;;3.78;1.10;;;;;;;;;;4960535;28;20045;-77
2023/11/10 03:51:12;;;;;;;2.55;1.20;;;;;;;;;;4963911;28;20437;-77
2023/11/10 03:53:41;;;;;;;4.70;1.38;;;;;;;;;;4954678;28;20061;-77
2023/11/10 03:56:07;;;;;;;2.25;1.00;;;;;;;;;;4968448;28;20031;-77
2023/11/10 03:58:34;;;;;;;3.20;1.20;;;;;;;;;;4976516;28;20030;-77
2023/11/10 04:01:00;;;;;;;1.60;0.90;;;;;;;;;;4972592;28;20033;-77
2023/11/10 04:03:25;;;;;;;4.70;1.40;;;;;;;;;;4976165;28;20027;-77
2023/11/10 04:05:51;;;;;;;6.88;1.30;;;;;;;;;;4977143;28;20082;-77
2023/11/10 04:08:17;;;;;;;3.33;0.93;;;;;;;;;;4955543;28;20035;-76
2023/11/10 04:10:42;;;;;;;2.53;1.20;;;;;;;;;;4960255;28;20038;-77
2023/11/10 04:13:08;;;;;;;2.45;1.00;;;;;;;;;;4975465;28;20093;-76
2023/11/10 04:15:33;;;;;;;4.55;1.50;;;;;;;;;;4961307;28;20065;-76
2023/11/10 04:18:01;;;;;;;3.35;1.02;;;;;;;;;;4977955;28;20390;-77
2023/11/10 04:20:27;;;;;;;2.85;1.20;;;;;;;;;;4976322;28;20062;-77
2023/11/10 04:22:52;;;;;;;3.10;1.10;;;;;;;;;;4969326;28;20500;-77
2023/11/10 04:25:17;;;;;;;4.25;1.27;;;;;;;;;;4959061;28;20086;-77
2023/11/10 04:27:43;;;;;;;3.63;0.93;;;;;;;;;;4953853;28;20026;-78
2023/11/10 04:30:09;;;;;;;2.05;0.82;;;;;;;;;;4973452;28;20026;-77
2023/11/10 04:32:36;;;;;;;1.83;0.80;;;;;;;;;;4972307;28;20394;-77
2023/11/10 04:35:03;;;;;;;2.20;1.00;;;;;;;;;;4953041;28;20047;-77
2023/11/10 04:37:29;;;;;;;1.30;0.77;;;;;;;;;;4973091;28;20042;-77
2023/11/10 04:39:55;;;;;;;4.47;1.00;;;;;;;;;;4957306;28;20098;-77
2023/11/10 04:42:20;;;;;;;4.43;1.10;;;;;;;;;;4955500;28;20449;-77
2023/11/10 04:44:46;;;;;;;2.10;0.70;;;;;;;;;;4973697;28;20033;-77
2023/11/10 04:47:12;;;;;;;4.00;1.05;;;;;;;;;;4969603;28;20030;-77
2023/11/10 04:49:38;;;;;;;3.58;1.10;;;;;;;;;;4957834;28;20077;-77
2023/11/10 04:52:04;;;;;;;1.42;0.77;;;;;;;;;;4972643;28;20023;-77
2023/11/10 04:54:30;;;;;;;3.25;0.90;;;;;;;;;;4975817;28;20027;-77
2023/11/10 04:56:55;;;;;;;2.30;0.93;;;;;;;;;;4953670;28;20027;-77
2023/11/10 04:59:21;;;;;;;3.40;1.27;;;;;;;;;;4961729;28;20499;-77
2023/11/10 05:01:46;;;;;;;2.45;0.93;;;;;;;;;;4953294;28;20048;-78
2023/11/10 05:04:13;;;;;;;1.98;0.90;;;;;;;;;;4969215;28;20505;-77
2023/11/10 05:06:39;;;;;;;2.53;1.05;;;;;;;;;;4954910;28;20380;-77
2023/11/10 05:09:08;;;;;;;3.03;1.00;;;;;;;;;;4972259;28;20033;-77
2023/11/10 05:11:34;;;;;;;3.22;1.02;;;;;;;;;;4955299;28;20042;-77
2023/11/10 05:14:00;;;;;;;3.17;0.90;;;;;;;;;;4973401;28;20423;-77
2023/11/10 05:16:25;;;;;;;2.75;0.73;;;;;;;;;;4972136;28;20031;-76
2023/11/10 05:18:51;;;;;;;3.65;0.90;;;;;;;;;;4953491;28;20619;-76
2023/11/10 05:21:19;;;;;;;5.32;0.88;;;;;;;;;;4972585;28;20511;-77
2023/11/10 05:23:45;;;;;;;3.17;0.90;;;;;;;;;;4980925;28;20038;-76
2023/11/10 05:26:11;;;;;;;3.08;0.90;;;;;;;;;;4953894;28;20034;-77
2023/11/10 05:28:36;;;;;;;3.00;0.80;;;;;;;;;;4980800;28;20499;-77
2023/11/10 05:31:02;;;;;;;3.28;0.90;;;;;;;;;;4971282;28;20079;-77
2023/11/10 05:33:29;;;;;;;1.88;0.73;;;;;;;;;;4971879;28;20027;-77
2023/11/10 05:35:54;;;;;;;2.85;0.75;;;;;;;;;;4952661;28;20104;-78
2023/11/10 05:38:20;;;;;;;3.90;0.98;;;;;;;;;;4950028;28;20508;-77
2023/11/10 05:40:45;;;;;;;2.28;0.68;;;;;;;;;;4973887;28;20550;-77
2023/11/10 05:43:11;;;;;;;1.92;0.95;;;;;;;;;;4951841;28;20026;-77
2023/11/10 05:45:37;;;;;;;2.88;0.90;;;;;;;;;;4971502;28;20033;-77
2023/11/10 05:48:02;;;;;;;3.92;0.90;;;;;;;;;;4965950;28;20030;-77
2023/11/10 05:50:28;;;;;;;3.65;1.00;;;;;;;;;;4953123;28;20035;-77
2023/11/10 05:52:54;;;;;;;3.63;0.80;;;;;;;;;;4954674;28;20512;-77
2023/11/10 05:55:19;;;;;;;2.22;0.80;;;;;;;;;;4974256;28;20485;-77
2023/11/10 05:57:47;;;;;;;3.97;0.90;;;;;;;;;;4954994;28;20033;-78
2023/11/10 06:00:13;;;;;;;2.90;0.90;;;;;;;;;;4965832;28;20034;-77
2023/11/10 06:02:39;;;;;;;4.97;0.93;;;;;;;;;;4964698;28;20137;-77
2023/11/10 06:05:04;;;;;;;4.90;1.08;;;;;;;;;;4968751;28;20068;-77
2023/11/10 06:07:31;;;;;;;1.92;0.70;;;;;;;;;;4984656;28;20106;-77
2023/11/10 06:09:57;;;;;;;3.55;0.80;;;;;;;;;;4982388;28;20037;-77
2023/11/10 06:12:23;;;;;;;4.88;1.02;;;;;;;;;;4976204;28;20027;-77
2023/11/10 06:14:49;;;;;;;4.68;1.50;;;;;;;;;;4970060;28;20061;-77
2023/11/10 06:17:18;;;;;;;2.92;0.70;;;;;;;;;;4975979;28;20066;-77
2023/11/10 06:19:43;;;;;;;4.32;1.10;;;;;;;;;;4971836;28;20030;-78
2023/11/10 06:22:11;;;;;;;3.70;1.00;;;;;;;;;;4978815;28;20397;-77
2023/11/10 06:24:37;;;;;;;3.03;0.90;;;;;;;;;;4962713;28;20038;-77
2023/11/10 06:27:02;;;;;;;2.30;0.73;;;;;;;;;;4980914;28;20045;-77
2023/11/10 06:29:28;;;;;;;2.35;0.90;;;;;;;;;;4975909;28;20026;-77
2023/11/10 06:31:53;;;;;;;2.45;0.70;;;;;;;;;;4954731;28;20049;-77
2023/11/10 06:34:19;;;;;;;6.55;1.10;;;;;;;;;;4955398;28;20041;-78
2023/11/10 06:36:45;;;;;;;3.10;0.90;;;;;;;;;;4950593;28;21528;-78
2023/11/10 06:39:11;;;;;;;2.17;0.90;;;;;;;;;;4978221;28;20026;-77
2023/11/10 06:41:36;;;;;;;3.80;1.00;;;;;;;;;;4973369;28;20031;-77
2023/11/10 06:44:02;;;;;;;4.95;1.27;;;;;;;;;;4973962;28;20023;-77
2023/11/10 06:46:27;;;;;;;5.13;1.45;;;;;;;;;;4973222;28;20054;-77
2023/11/10 06:48:54;;;;;;;4.15;1.25;;;;;;;;;;4957337;28;20097;-77
2023/11/10 06:51:20;;;;;;;2.97;0.82;;;;;;;;;;4975242;28;20026;-77
2023/11/10 06:53:45;;;;;;;2.53;1.05;;;;;;;;;;4956537;28;20409;-77
2023/11/10 06:56:11;;;;;;;3.05;1.20;;;;;;;;;;4972920;28;20032;-77
2023/11/10 06:58:37;;;;;;;4.63;1.13;;;;;;;;;;4976884;28;20046;-77
2023/11/10 07:01:04;;;;;;;4.88;1.20;;;;;;;;;;4974564;28;20031;-77
2023/11/10 07:03:30;;;;;;;4.07;1.20;;;;;;;;;;4975670;28;20045;-77
2023/11/10 07:05:56;;;;;;;6.65;1.35;;;;;;;;;;4965539;28;20029;-77
2023/11/10 07:08:21;;;;;;;2.65;1.23;;;;;;;;;;4984555;28;20026;-77
2023/11/10 07:10:53;;;;;;;2.63;1.27;;;;;;;;;;4959709;28;20062;-77
2023/11/10 07:13:18;;;;;;;3.22;1.20;;;;;;;;;;4975812;28;20067;-77
2023/11/10 07:15:45;;;;;;;3.95;1.15;;;;;;;;;;4978432;28;20023;-77
2023/11/10 07:18:11;;;;;;;3.72;1.23;;;;;;;;;;4976938;28;20034;-77
2023/11/10 07:20:42;;;;;;;5.10;1.20;;;;;;;;;;4979753;28;20031;-77
2023/11/10 07:23:07;;;;;;;7.90;1.38;;;;;;;;;;4979361;28;20469;-77
2023/11/10 07:25:32;;;;;;;3.33;1.10;;;;;;;;;;4979157;28;20030;-77
2023/11/10 07:27:58;;;;;;;3.75;1.00;;;;;;;;;;4977621;28;20052;-76
2023/11/10 07:30:24;;;;;;;3.72;1.17;;;;;;;;;;4961250;28;20054;-77
2023/11/10 07:32:50;;;;;;;4.65;1.00;;;;;;;;;;4972876;28;20030;-77
2023/11/10 07:35:16;;;;;;;4.70;1.20;;;;;;;;;;4959356;28;20027;-77
2023/11/10 07:37:44;;;;;;;6.50;1.10;;;;;;;;;;4971487;28;20049;-76
2023/11/10 07:40:12;;;;;;;3.65;1.23;;;;;;;;;;4972484;28;20340;-76
2023/11/10 07:42:39;;;;;;;3.70;1.00;;;;;;;;;;4970862;28;20061;-76
2023/11/10 07:45:05;;;;;;;4.97;1.13;;;;;;;;;;4973565;28;20552;-76
2023/11/10 07:47:32;;;;;;;4.22;1.17;;;;;;;;;;4976572;28;20169;-76
2023/11/10 07:49:58;;;;;;;6.25;1.40;;;;;;;;;;4957186;28;21774;-76
2023/11/10 07:52:24;;;;;;;5.47;1.25;;;;;;;;;;4975465;28;20188;-77
2023/11/10 07:54:50;;;;;;;2.65;1.13;;;;;;;;;;4978101;28;20019;-76
2023/11/10 07:57:15;;;;;;;3.42;1.23;;;;;;;;;;4973424;28;20029;-76
2023/11/10 07:59:41;;;;;;;4.35;1.40;;;;;;;;;;4957839;28;20038;-76
2023/11/10 08:02:06;;;;;;;5.25;1.50;;;;;;;;;;4958612;28;20481;-76
2023/11/10 08:04:34;;;;;;;6.90;1.45;;;;;;;;;;4974176;28;20034;-77
2023/11/10 08:07:00;;;;;;;4.95;1.48;;;;;;;;;;4975077;28;20027;-76
2023/11/10 08:09:26;;;;;;;4.30;1.48;;;;;;;;;;4984451;28;20122;-76
2023/11/10 08:11:52;;;;;;;4.82;1.77;;;;;;;;;;4956417;28;20061;-76
2023/11/10 08:14:17;;;;;;;3.85;1.45;;;;;;;;;;4972147;28;20050;-76
2023/11/10 08:16:43;;;;;;;4.55;1.65;;;;;;;;;;4943736;28;20171;-76
2023/11/10 08:19:10;;;;;;;5.63;1.50;;;;;;;;;;4976860;28;20034;-76
2023/11/10 08:21:36;;;;;;;4.00;1.30;;;;;;;;;;4957433;28;20055;-76
2023/11/10 08:24:01;;;;;;;5.43;1.80;;;;;;;;;;4978259;28;20091;-76
2023/11/10 08:26:27;;;;;;;4.57;1.42;;;;;;;;;;4954789;28;20113;-76
2023/11/10 08:28:53;;;;;;;6.50;1.50;;;;;;;;;;4971646;28;20026;-76
2023/11/10 08:31:22;;;;;;;3.47;1.27;;;;;;;;;;4979499;28;20196;-76
2023/11/10 08:33:47;;;;;;;6.30;1.45;;;;;;;;;;4954726;28;20145;-77
2023/11/10 08:36:13;;;;;;;5.05;1.40;;;;;;;;;;4973472;28;20572;-76
2023/11/10 08:38:38;;;;;;;6.30;1.33;;;;;;;;;;4977451;28;20472;-76
2023/11/10 08:41:04;;;;;;;5.22;1.48;;;;;;;;;;4981306;28;20037;-76
2023/11/10 08:43:29;;;;;;;4.25;1.17;;;;;;;;;;4936780;28;20396;-76
2023/11/10 08:45:55;;;;;;;4.68;1.20;;;;;;;;;;4960876;28;20023;-78
2023/11/10 08:48:20;;;;;;;7.28;1.50;;;;;;;;;;4969954;28;20086;-77
2023/11/10 08:50:45;;;;;;;5.93;1.67;;;;;;;;;;4951378;28;20412;-77
2023/11/10 08:53:11;;;;;;;6.75;1.30;;;;;;;;;;4955417;28;20116;-77
2023/11/10 08:55:37;;;;;;;5.32;1.33;;;;;;;;;;4959022;28;20030;-77
2023/11/10 08:58:03;;;;;;;6.10;1.85;;;;;;;;;;4951069;28;20041;-77
2023/11/10 09:00:29;;;;;;;6.30;1.30;;;;;;;;;;4958535;28;20095;-77
2023/11/10 09:02:55;;;;;;;4.32;1.20;;;;;;;;;;4962205;28;20058;-77
2023/11/10 09:05:22;;;;;;;4.97;1.33;;;;;;;;;;4945178;28;20034;-77
2023/11/10 09:07:48;;;;;;;6.53;1.33;;;;;;;;;;4961184;28;20034;-77
2023/11/10 09:10:14;;;;;;;5.55;1.20;;;;;;;;;;4948585;28;20488;-77
2023/11/10 09:12:45;;;;;;;5.68;1.45;;;;;;;;;;4954522;28;20039;-77
2023/11/10 09:15:14;;;;;;;5.85;1.40;;;;;;;;;;4937842;28;20046;-77
2023/11/10 09:17:41;;;;;;;7.72;1.30;;;;;;;;;;4949204;28;20066;-77
2023/11/10 09:20:08;;;;;;;6.00;1.40;;;;;;;;;;4951707;28;20035;-77
2023/11/10 09:22:36;;;;;;;4.03;1.35;;;;;;;;;;4962175;28;20057;-77
2023/11/10 09:25:04;;;;;;;5.95;1.38;;;;;;;;;;4947201;28;20770;-77
2023/11/10 09:27:31;;;;;;;6.30;1.33;;;;;;;;;;4943936;28;20496;-77
2023/11/10 09:29:57;;;;;;;4.88;1.50;;;;;;;;;;4961107;28;20050;-77
2023/11/10 09:32:22;;;;;;;6.45;1.52;;;;;;;;;;4938659;28;20039;-78
2023/11/10 09:34:48;;;;;;;5.82;1.20;;;;;;;;;;4972395;28;20038;-77
2023/11/10 09:37:14;;;;;;;6.55;1.50;;;;;;;;;;4971811;28;20038;-77
2023/11/10 09:39:39;;;;;;;4.80;1.30;;;;;;;;;;4952870;28;20026;-78
2023/11/10 09:42:08;;;;;;;5.38;1.10;;;;;;;;;;4953499;28;20564;-77
2023/11/10 09:44:40;;;;;;;7.88;1.25;;;;;;;;;;4947358;28;20046;-77
2023/11/10 09:47:06;;;;;;;5.30;1.25;;;;;;;;;;4956909;28;20034;-78
2023/11/10 09:49:33;;;;;;;5.60;1.20;;;;;;;;;;4964385;28;20101;-77
2023/11/10 09:52:00;;;;;;;7.45;1.38;;;;;;;;;;4967800;28;20098;-76
2023/11/10 09:54:27;;;;;;;5.47;1.77;;;;;;;;;;4962200;28;20105;-77
2023/11/10 09:56:55;;;;;;;4.50;1.38;;;;;;;;;;4968680;28;20027;-76
2023/11/10 09:59:27;;;;;;;5.35;2.10;;;;;;;;;;4953317;28;20031;-77
2023/11/10 10:01:53;;;;;;;5.88;1.80;;;;;;;;;;4966187;28;20117;-76
2023/11/10 10:04:19;;;;;;;4.80;2.00;;;;;;;;;;4956917;28;20034;-76
2023/11/10 10:06:50;;;;;;;5.18;2.13;;;;;;;;;;4969511;28;20515;-76
2023/11/10 10:09:16;;;;;;;8.73;3.45;;;;;;;;;;4950422;28;20089;-76
2023/11/10 10:11:42;;;;;;;8.57;3.33;;;;;;;;;;4943308;28;20031;-76
2023/11/10 10:14:08;;;;;;;4.75;1.45;;;;;;;;;;4963180;28;20045;-76
2023/11/10 10:16:33;;;;;;;7.20;2.40;;;;;;;;;;4963462;28;20031;-76
2023/11/10 10:19:00;;;;;;;7.30;2.25;;;;;;;;;;4959818;28;20564;-76
2023/11/10 10:21:25;;;;;;;3.38;1.50;;;;;;;;;;4937841;28;20493;-76
2023/11/10 10:23:52;;;;;;;4.85;2.25;;;;;;;;;;4964562;28;20039;-76
2023/11/10 10:26:17;;;;;;;5.32;1.88;;;;;;;;;;4949316;28;20041;-76
2023/11/10 10:28:46;;;;;;;5.55;2.22;;;;;;;;;;4966613;28;20034;-76
2023/11/10 10:31:13;;;;;;;6.22;2.28;;;;;;;;;;4953840;28;20042;-76
2023/11/10 10:33:39;;;;;;;5.72;1.65;;;;;;;;;;4963346;28;20030;-76
2023/11/10 10:36:06;;;;;;;3.20;1.05;;;;;;;;;;4958751;28;20496;-76
2023/11/10 10:38:32;;;;;;;5.60;1.30;;;;;;;;;;4971536;28;20031;-76
2023/11/10 10:40:59;;;;;;;3.45;1.23;;;;;;;;;;4963304;28;20030;-76
2023/11/10 10:43:25;;;;;;;4.47;1.10;;;;;;;;;;4969416;28;20031;-76
2023/11/10 10:45:52;;;;;;;2.50;1.00;;;;;;;;;;4946423;28;21339;-76
2023/11/10 10:48:18;;;;;;;7.60;1.30;;;;;;;;;;4953528;28;20031;-77
2023/11/10 10:50:45;;;;;;;2.53;1.00;;;;;;;;;;4958787;28;20034;-76
2023/11/10 10:53:13;;;;;;;4.75;1.40;;;;;;;;;;4965131;28;20129;-76
2023/11/10 10:55:40;;;;;;;2.03;0.98;;;;;;;;;;4955852;28;20042;-76
2023/11/10 10:58:07;;;;;;;3.95;1.20;;;;;;;;;;4945368;28;20035;-76
2023/11/10 11:00:33;;;;;;;6.22;1.60;;;;;;;;;;4962085;28;20027;-76
2023/11/10 11:03:23;;;;;;;6.43;1.50;;;;;;;;;;4978948;28;20050;-76
2023/11/10 11:06:02;;;;;;;4.30;1.55;;;;;;;;;;4944012;28;20050;-77
2023/11/10 11:09:02;;;;;;;6.45;1.50;;;;;;;;;;4950914;28;20559;-77
2023/11/10 11:11:50;;;;;;;7.50;2.15;;;;;;;;;;4969395;28;20089;-77
2023/11/10 11:14:33;;;;;;;5.53;1.70;;;;;;;;;;4944228;28;20062;-78
2023/11/10 11:17:12;;;;;;;6.63;1.55;;;;;;;;;;4957538;28;20070;-77
2023/11/10 11:19:38;;;;;;;4.00;1.60;;;;;;;;;;4967979;28;20030;-77
2023/11/10 11:22:04;;;;;;;7.75;1.73;;;;;;;;;;4970481;28;20891;-77
2023/11/10 11:24:32;;;;;;;5.47;2.00;;;;;;;;;;4944468;28;20031;-77
2023/11/10 11:27:00;;;;;;;3.85;1.38;;;;;;;;;;4966894;28;20077;-77
2023/11/10 11:29:34;;;;;;;5.13;1.83;;;;;;;;;;4965745;28;20031;-77
2023/11/10 11:32:03;;;;;;;5.35;1.88;;;;;;;;;;4960961;28;20402;-78
2023/11/10 11:34:28;;;;;;;7.00;2.05;;;;;;;;;;4966660;28;20150;-77
2023/11/10 11:36:58;;;;;;;6.32;1.85;;;;;;;;;;4945216;28;20030;-78
2023/11/10 11:39:26;;;;;;;6.88;2.10;;;;;;;;;;4969349;28;20038;-77
2023/11/10 11:41:53;;;;;;;3.88;1.40;;;;;;;;;;4977172;28;20037;-77
2023/11/10 11:44:26;;;;;;;5.20;2.00;;;;;;;;;;4969338;28;20242;-77
2023/11/10 11:47:03;;;;;;;;;;;;;;;;;;4972457;28;20795;-77
2023/11/10 11:49:28;;;;;;;9.23;1.40;;;;;;;;;;4974127;28;20028;-77
2023/11/10 11:51:55;;;;;;;7.20;2.05;;;;;;;;;;4953900;28;20806;-76
2023/11/10 11:54:20;;;;;;;6.95;1.40;;;;;;;;;;4960809;28;20042;-77
2023/11/10 11:56:46;;;;;;;3.63;1.67;;;;;;;;;;4952067;28;20085;-77
2023/11/10 11:59:12;;;;;;;4.78;1.40;;;;;;;;;;4951536;28;20121;-77
2023/11/10 12:01:38;;;;;;;3.75;1.30;;;;;;;;;;4969662;28;20154;-78
2023/11/10 12:04:07;;;;;;;3.00;1.15;;;;;;;;;;4972470;28;20481;-77
2023/11/10 12:06:34;;;;;;;3.38;1.10;;;;;;;;;;4950199;28;20038;-77
2023/11/10 12:09:03;;;;;;;6.47;1.55;;;;;;;;;;4957609;28;20033;-77
2023/11/10 12:11:28;;;;;;;4.88;1.30;;;;;;;;;;4971686;28;20110;-77
2023/11/10 12:13:55;;;;;;;5.15;1.40;;;;;;;;;;4965071;28;20113;-77
2023/11/10 12:16:22;;;;;;;4.28;1.30;;;;;;;;;;4964248;28;20407;-76
2023/11/10 12:18:54;;;;;;;1.73;0.90;;;;;;;;;;4947685;28;20027;-76
2023/11/10 12:21:19;;;;;;;3.55;1.00;;;;;;;;;;4976842;28;20106;-77
2023/11/10 12:23:59;;;;;;;2.10;0.82;;;;;;;;;;4973506;28;20121;-76
2023/11/10 12:26:25;;;;;;;3.15;0.95;;;;;;;;;;4954577;28;20183;-76
2023/11/10 12:28:52;;;;;;;3.00;0.95;;;;;;;;;;4968035;28;20125;-76
2023/11/10 12:31:17;;;;;;;3.97;0.98;;;;;;;;;;4969530;28;20173;-76
2023/11/10 12:33:43;;;;;;;3.05;1.05;;;;;;;;;;4958517;28;20030;-77
2023/11/10 12:36:10;;;;;;;2.13;0.80;;;;;;;;;;4968527;28;20034;-76
2023/11/10 12:38:36;;;;;;;3.90;1.00;;;;;;;;;;4952717;28;20037;-77
2023/11/10 12:41:02;;;;;;;3.60;0.90;;;;;;;;;;4963906;28;20023;-77
2023/11/10 12:43:28;;;;;;;5.78;1.40;;;;;;;;;;4956581;28;20069;-76
2023/11/10 12:45:54;;;;;;;4.88;0.90;;;;;;;;;;4956718;28;20077;-78
2023/11/10 12:48:19;;;;;;;3.20;1.08;;;;;;;;;;4976119;28;20050;-78
2023/11/10 12:50:47;;;;;;;8.32;0.85;;;;;;;;;;4964671;28;20034;-78
2023/11/10 12:53:13;;;;;;;2.08;1.30;;;;;;;;;;4970292;28;20493;-77
2023/11/10 12:55:38;;;;;;;2.03;0.90;;;;;;;;;;4941007;28;20042;-78
2023/11/10 12:58:04;;;;;;;4.22;1.45;;;;;;;;;;4970004;28;20045;-77
2023/11/10 13:00:31;;;;;;;4.07;1.10;;;;;;;;;;4976565;28;20579;-77
2023/11/10 13:02:57;;;;;;;4.00;1.20;;;;;;;;;;4949971;28;20037;-77
2023/11/10 13:05:24;;;;;;;1.95;0.93;;;;;;;;;;4967412;28;20039;-77
2023/11/10 13:07:50;;;;;;;2.88;1.00;;;;;;;;;;4969138;28;20026;-77
2023/11/10 13:10:15;;;;;;;5.18;1.70;;;;;;;;;;4975756;28;20030;-77
2023/11/10 13:12:40;;;;;;;5.70;2.05;;;;;;;;;;4960914;28;20116;-77
2023/11/10 13:15:08;;;;;;;4.35;1.52;;;;;;;;;;4962168;28;20065;-77
2023/11/10 13:17:33;;;;;;;5.35;1.13;;;;;;;;;;4967148;28;20026;-77
2023/11/10 13:20:00;;;;;;;3.83;0.93;;;;;;;;;;4967546;28;20499;-77
2023/11/10 13:22:27;;;;;;;4.28;0.95;;;;;;;;;;4968654;28;20086;-77
2023/11/10 13:24:53;;;;;;;4.55;1.30;;;;;;;;;;4966256;28;20093;-77
2023/11/10 13:27:21;;;;;;;4.90;1.80;;;;;;;;;;4954036;28;20038;-77
2023/11/10 13:29:46;;;;;;;4.13;1.35;;;;;;;;;;4977077;28;20031;-77
2023/11/10 13:32:14;;;;;;;3.25;1.20;;;;;;;;;;4966232;28;20080;-75
2023/11/10 13:34:43;;;;;;;5.85;2.20;;;;;;;;;;4968789;28;20476;-77
2023/11/10 13:37:11;;;;;;;6.28;2.20;;;;;;;;;;4967873;28;20574;-77
2023/11/10 13:39:37;;;;;;;4.88;1.70;;;;;;;;;;4954097;28;20041;-77
2023/11/10 13:42:02;;;;;;;5.07;1.88;;;;;;;;;;4962619;28;20177;-78
2023/11/10 13:44:28;;;;;;;6.70;1.92;;;;;;;;;;4970344;28;20773;-77
2023/11/10 13:46:54;;;;;;;3.05;1.40;;;;;;;;;;4970261;28;20058;-77
2023/11/10 13:49:20;;;;;;;4.68;1.60;;;;;;;;;;4948892;28;20031;-77
2023/11/10 13:51:45;;;;;;;7.65;1.88;;;;;;;;;;4948359;28;20053;-77
2023/11/10 13:54:11;;;;;;;5.35;2.03;;;;;;;;;;4956721;28;20038;-77
2023/11/10 13:56:36;;;;;;;6.20;1.45;;;;;;;;;;4952275;28;20657;-77
2023/11/10 13:59:02;;;;;;;4.45;1.35;;;;;;;;;;4947614;28;20496;-77
2023/11/10 14:01:28;;;;;;;4.47;1.23;;;;;;;;;;4968673;28;20034;-77
2023/11/10 14:03:53;;;;;;;6.75;1.45;;;;;;;;;;4963700;28;20027;-77
2023/11/10 14:06:20;;;;;;;7.32;2.30;;;;;;;;;;4956300;28;20034;-77
2023/11/10 14:08:45;;;;;;;3.47;1.52;;;;;;;;;;4971008;28;20030;-77
2023/11/10 14:11:10;;;;;;;5.90;2.03;;;;;;;;;;4965268;28;20041;-77
2023/11/10 14:13:36;;;;;;;6.68;2.15;;;;;;;;;;4972514;28;20060;-77
2023/11/10 14:16:05;;;;;;;5.20;1.60;;;;;;;;;;4965748;28;20022;-77
2023/11/10 14:18:32;;;;;;;5.30;1.83;;;;;;;;;;4950841;28;20559;-77
2023/11/10 14:21:00;;;;;;;4.55;1.95;;;;;;;;;;4944983;28;20532;-77
2023/11/10 14:23:26;;;;;;;5.60;2.03;;;;;;;;;;4958331;28;20386;-77
2023/11/10 14:25:54;;;;;;;5.70;2.70;;;;;;;;;;4969665;28;20473;-77
2023/11/10 14:28:21;;;;;;;8.18;2.30;;;;;;;;;;4955733;28;20023;-79
2023/11/10 14:30:47;;;;;;;5.30;1.98;;;;;;;;;;4948852;28;20027;-78
2023/11/10 14:33:14;;;;;;;7.30;2.58;;;;;;;;;;4971429;28;20029;-77
2023/11/10 14:35:41;;;;;;;8.60;2.70;;;;;;;;;;4965664;28;20026;-77
2023/11/10 14:38:08;;;;;;;7.63;2.60;;;;;;;;;;4962467;28;20121;-77
2023/11/10 14:40:33;;;;;;;6.88;2.25;;;;;;;;;;4971382;28;20551;-77